createdAt,value
2023-01-23T00:00:01.101Z,102413.00
2023-01-23T00:01:20.080Z,102405.38
2023-01-23T00:02:25.521Z,102417.38
2023-01-23T00:03:34.637Z,102407.16
2023-01-23T00:04:37.004Z,102408.16
2023-01-23T00:05:41.499Z,102412.59
2023-01-23T00:06:50.878Z,102415.91
2023-01-23T00:07:56.812Z,102414.91
2023-01-23T00:08:59.970Z,102408.97
2023-01-23T00:10:07.719Z,102410.13
2023-01-23T00:11:21.230Z,102409.94
2023-01-23T00:12:23.645Z,102406.50
2023-01-23T00:13:28.079Z,102406.56
2023-01-23T00:14:30.263Z,102409.22
2023-01-23T00:15:40.680Z,102406.50
2023-01-23T00:16:47.143Z,102403.19
2023-01-23T00:17:49.423Z,102402.84
2023-01-23T00:18:53.074Z,102409.03
2023-01-23T00:19:57.773Z,102399.41
2023-01-23T00:21:05.743Z,102401.41
2023-01-23T00:22:11.782Z,102401.78
2023-01-23T00:23:14.843Z,102401.88
2023-01-23T00:24:17.229Z,102404.13
2023-01-23T00:25:19.412Z,102410.88
2023-01-23T00:26:25.103Z,102399.53
2023-01-23T00:27:28.832Z,102398.63
2023-01-23T00:28:31.931Z,102410.94
2023-01-23T00:29:34.881Z,102415.25
2023-01-23T00:30:39.065Z,102405.97
2023-01-23T00:31:42.281Z,102410.22
2023-01-23T00:32:46.042Z,102406.09
2023-01-23T00:33:48.217Z,102406.03
2023-01-23T00:34:54.291Z,102413.00
2023-01-23T00:36:01.938Z,102406.16
2023-01-23T00:37:07.068Z,102409.47
2023-01-23T00:38:09.543Z,102409.56
2023-01-23T00:39:22.846Z,102406.19
2023-01-23T00:40:28.202Z,102408.91
2023-01-23T00:41:30.455Z,102414.41
2023-01-23T00:42:34.666Z,102410.03
2023-01-23T00:43:38.823Z,102415.47
2023-01-23T00:44:43.329Z,102408.81
2023-01-23T00:45:45.857Z,102423.47
2023-01-23T00:46:49.317Z,102416.22
2023-01-23T00:47:53.046Z,102421.00
2023-01-23T00:48:58.209Z,102416.38
2023-01-23T00:50:04.045Z,102421.88
2023-01-23T00:51:06.749Z,102418.34
2023-01-23T00:52:11.136Z,102424.78
2023-01-23T00:53:14.399Z,102431.53
2023-01-23T00:54:20.672Z,102418.34
2023-01-23T00:55:23.117Z,102426.09
2023-01-23T00:56:27.999Z,102425.59
2023-01-23T00:57:30.713Z,102426.56
2023-01-23T00:58:33.143Z,102426.91
2023-01-23T00:59:38.769Z,102418.81
2023-01-23T01:00:42.340Z,102424.44
2023-01-23T01:01:48.951Z,102419.16
2023-01-23T01:02:59.529Z,102422.13
2023-01-23T01:04:05.873Z,102414.41
2023-01-23T01:05:13.795Z,102423.72
2023-01-23T01:06:20.469Z,102420.34
2023-01-23T01:07:24.615Z,102419.00
2023-01-23T01:08:30.299Z,102431.53
2023-01-23T01:09:37.095Z,102430.59
2023-01-23T01:10:43.215Z,102427.88
2023-01-23T01:11:46.439Z,102429.63
2023-01-23T01:12:52.574Z,102428.47
2023-01-23T01:13:57.897Z,102436.38
2023-01-23T01:15:00.335Z,102430.34
2023-01-23T01:16:06.598Z,102432.53
2023-01-23T01:17:14.476Z,102430.13
2023-01-23T01:18:22.216Z,102436.19
2023-01-23T01:19:25.869Z,102428.38
2023-01-23T01:20:32.200Z,102430.94
2023-01-23T01:21:36.234Z,102424.53
2023-01-23T01:22:41.916Z,102428.72
2023-01-23T01:23:45.544Z,102426.75
2023-01-23T01:24:48.293Z,102427.63
2023-01-23T01:25:52.270Z,102429.03
2023-01-23T01:26:56.469Z,102429.69
2023-01-23T01:27:59.919Z,102432.19
2023-01-23T01:29:06.419Z,102427.91
2023-01-23T01:30:12.920Z,102430.53
2023-01-23T01:31:18.264Z,102431.69
2023-01-23T01:32:20.890Z,102422.38
2023-01-23T01:33:25.892Z,102427.16
2023-01-23T01:34:34.017Z,102429.81
2023-01-23T01:35:41.939Z,102424.44
2023-01-23T01:36:50.380Z,102425.56
2023-01-23T01:37:53.976Z,102427.41
2023-01-23T01:38:56.243Z,102429.88
2023-01-23T01:40:03.489Z,102431.13
2023-01-23T01:41:06.914Z,102429.47
2023-01-23T01:42:14.077Z,102429.38
2023-01-23T01:43:22.415Z,102432.19
2023-01-23T01:44:28.180Z,102438.81
2023-01-23T01:46:09.881Z,102440.81
2023-01-23T01:47:16.105Z,102431.84
2023-01-23T01:48:21.748Z,102424.94
2023-01-23T01:49:32.617Z,102425.75
2023-01-23T01:50:35.702Z,102434.81
2023-01-23T01:51:47.841Z,102436.28
2023-01-23T01:52:52.035Z,102439.00
2023-01-23T01:54:10.736Z,102433.47
2023-01-23T01:55:14.937Z,102428.13
2023-01-23T01:56:20.847Z,102428.06
2023-01-23T01:57:28.289Z,102432.84
2023-01-23T01:58:31.169Z,102436.28
2023-01-23T01:59:45.232Z,102433.47
2023-01-23T02:00:47.572Z,102435.28
2023-01-23T02:01:54.497Z,102433.47
2023-01-23T02:02:59.904Z,102433.66
2023-01-23T02:04:02.613Z,102431.16
2023-01-23T02:05:10.111Z,102437.72
2023-01-23T02:06:14.210Z,102431.66
2023-01-23T02:07:41.181Z,102427.53
2023-01-23T02:09:07.449Z,102430.19
2023-01-23T02:10:12.665Z,102431.44
2023-01-23T02:11:20.912Z,102430.38
2023-01-23T02:12:27.077Z,102434.72
2023-01-23T02:13:43.273Z,102428.53
2023-01-23T02:14:46.726Z,102429.28
2023-01-23T02:15:50.206Z,102434.16
2023-01-23T02:17:07.306Z,102433.31
2023-01-23T02:18:10.650Z,102434.16
2023-01-23T02:19:53.518Z,102434.31
2023-01-23T02:21:14.085Z,102427.56
2023-01-23T02:22:33.680Z,102422.72
2023-01-23T02:24:05.159Z,102424.34
2023-01-23T02:25:09.843Z,102415.38
2023-01-23T02:26:17.111Z,102417.19
2023-01-23T02:27:19.994Z,102417.03
2023-01-23T02:28:26.145Z,102425.16
2023-01-23T02:29:43.999Z,102419.16
2023-01-23T02:30:51.119Z,102414.53
2023-01-23T02:32:05.759Z,102424.94
2023-01-23T02:33:20.900Z,102420.16
2023-01-23T02:34:27.677Z,102425.09
2023-01-23T02:35:36.102Z,102420.97
2023-01-23T02:36:48.273Z,102420.25
2023-01-23T02:37:57.672Z,102424.03
2023-01-23T02:39:15.819Z,102417.78
2023-01-23T02:40:22.462Z,102424.34
2023-01-23T02:41:30.875Z,102417.50
2023-01-23T02:42:41.891Z,102426.06
2023-01-23T02:43:47.905Z,102418.50
2023-01-23T02:44:56.033Z,102428.50
2023-01-23T02:46:02.863Z,102425.06
2023-01-23T02:47:12.522Z,102426.22
2023-01-23T02:48:23.481Z,102432.94
2023-01-23T02:49:26.369Z,102434.75
2023-01-23T02:50:30.925Z,102426.25
2023-01-23T02:51:33.368Z,102430.75
2023-01-23T02:52:36.674Z,102428.84
2023-01-23T02:53:39.973Z,102419.84
2023-01-23T02:54:46.675Z,102419.25
2023-01-23T02:55:50.635Z,102413.31
2023-01-23T02:56:57.841Z,102419.72
2023-01-23T02:58:20.906Z,102424.59
2023-01-23T02:59:45.357Z,102426.25
2023-01-23T03:00:51.053Z,102427.97
2023-01-23T03:01:58.482Z,102430.78
2023-01-23T03:03:05.747Z,102429.94
2023-01-23T03:04:08.602Z,102433.72
2023-01-23T03:05:11.209Z,102432.41
2023-01-23T03:06:15.156Z,102424.84
2023-01-23T03:07:17.387Z,102430.03
2023-01-23T03:08:21.541Z,102434.97
2023-01-23T03:09:23.647Z,102430.50
2023-01-23T03:10:27.021Z,102436.25
2023-01-23T03:11:35.518Z,102435.28
2023-01-23T03:12:47.920Z,102432.31
2023-01-23T03:13:55.025Z,102431.84
2023-01-23T03:14:58.923Z,102440.16
2023-01-23T03:16:07.581Z,102436.19
2023-01-23T03:17:11.241Z,102427.00
2023-01-23T03:18:18.201Z,102434.63
2023-01-23T03:19:27.713Z,102439.31
2023-01-23T03:20:41.866Z,102438.06
2023-01-23T03:21:46.457Z,102432.97
2023-01-23T03:22:53.010Z,102437.63
2023-01-23T03:23:55.635Z,102431.84
2023-01-23T03:25:05.614Z,102435.38
2023-01-23T03:26:16.926Z,102434.72
2023-01-23T03:27:21.413Z,102433.31
2023-01-23T03:29:03.538Z,102436.22
2023-01-23T03:30:21.322Z,102436.44
2023-01-23T03:31:26.780Z,102436.78
2023-01-23T03:32:31.039Z,102436.63
2023-01-23T03:35:05.639Z,102428.56
2023-01-23T03:36:12.934Z,102438.25
2023-01-23T03:37:17.871Z,102430.88
2023-01-23T03:38:35.346Z,102427.56
2023-01-23T05:13:22.590Z,102478.25
2023-01-23T05:16:51.788Z,102486.44
2023-01-23T05:21:20.913Z,102498.41
2023-01-23T05:27:38.487Z,102499.00
2023-01-23T05:28:50.868Z,102499.97
2023-01-23T05:29:57.717Z,102508.56
2023-01-23T05:31:03.315Z,102503.94
2023-01-23T05:33:54.035Z,102504.50
2023-01-23T05:35:06.426Z,102506.19
2023-01-23T05:36:23.468Z,102505.19
2023-01-23T05:37:37.181Z,102515.69
2023-01-23T05:38:42.521Z,102511.00
2023-01-23T05:39:48.985Z,102509.94
2023-01-23T05:40:56.712Z,102507.09
2023-01-23T05:45:14.384Z,102513.19
2023-01-23T05:46:58.025Z,102508.84
2023-01-23T05:48:25.990Z,102509.09
2023-01-23T05:50:45.440Z,102518.66
2023-01-23T05:55:07.621Z,102519.72
2023-01-23T05:56:39.445Z,102525.25
2023-01-23T05:58:23.671Z,102521.69
2023-01-23T05:59:41.227Z,102525.53
2023-01-23T06:04:00.038Z,102525.59
2023-01-23T06:10:00.912Z,102533.13
2023-01-23T06:11:31.847Z,102535.91
2023-01-23T06:22:14.544Z,102545.44
2023-01-23T06:23:37.001Z,102540.19
2023-01-23T06:24:50.063Z,102548.28
2023-01-23T06:26:07.509Z,102543.97
2023-01-23T06:27:54.876Z,102544.31
2023-01-23T06:29:03.209Z,102540.25
2023-01-23T06:30:11.673Z,102542.22
2023-01-23T06:31:24.210Z,102541.25
2023-01-23T06:32:36.474Z,102537.91
2023-01-23T06:33:54.240Z,102537.06
2023-01-23T06:35:02.887Z,102538.34
2023-01-23T06:36:27.464Z,102533.50
2023-01-23T06:37:50.325Z,102536.03
2023-01-23T06:39:01.495Z,102535.41
2023-01-23T06:40:14.523Z,102531.34
2023-01-23T06:41:29.047Z,102543.19
2023-01-23T06:42:37.195Z,102535.81
2023-01-23T06:43:42.908Z,102537.00
2023-01-23T06:44:59.953Z,102544.47
2023-01-23T06:46:13.213Z,102543.09
2023-01-23T06:47:17.063Z,102543.69
2023-01-23T06:48:29.128Z,102552.81
2023-01-23T06:49:34.448Z,102549.91
2023-01-23T06:50:46.834Z,102551.41
2023-01-23T06:51:49.585Z,102545.22
2023-01-23T06:53:01.155Z,102554.25
2023-01-23T06:54:06.137Z,102541.31
2023-01-23T06:55:14.715Z,102546.19
2023-01-23T06:56:20.262Z,102551.41
2023-01-23T06:57:25.844Z,102551.75
2023-01-23T06:58:35.204Z,102551.91
2023-01-23T06:59:44.722Z,102551.91
2023-01-23T07:00:50.263Z,102545.00
2023-01-23T07:02:15.505Z,102551.53
2023-01-23T07:03:55.781Z,102553.63
2023-01-23T07:05:20.698Z,102544.38
2023-01-23T07:08:21.564Z,102545.38
2023-01-23T07:09:41.071Z,102547.84
2023-01-23T07:11:15.090Z,102550.00
2023-01-23T07:12:40.298Z,102555.59
2023-01-23T07:14:05.729Z,102548.19
2023-01-23T07:17:51.711Z,102554.81
2023-01-23T07:19:25.834Z,102552.09
2023-01-23T07:20:40.977Z,102549.00
2023-01-23T07:22:09.107Z,102558.19
2023-01-23T07:23:25.661Z,102544.03
2023-01-23T07:25:04.988Z,102546.13
2023-01-23T07:26:34.111Z,102548.66
2023-01-23T07:27:41.524Z,102552.09
2023-01-23T07:28:57.338Z,102552.44
2023-01-23T07:30:19.267Z,102544.38
2023-01-23T07:31:45.823Z,102543.88
2023-01-23T07:34:57.623Z,102546.09
2023-01-23T07:36:13.661Z,102557.53
2023-01-23T07:37:51.200Z,102552.50
2023-01-23T07:39:07.259Z,102543.13
2023-01-23T07:40:21.299Z,102558.38
2023-01-23T07:41:37.928Z,102554.72
2023-01-23T07:42:50.076Z,102556.38
2023-01-23T07:43:57.194Z,102544.88
2023-01-23T07:46:57.437Z,102554.91
2023-01-23T07:48:22.362Z,102557.25
2023-01-23T07:51:19.916Z,102551.41
2023-01-23T07:52:33.197Z,102557.72
2023-01-23T07:53:54.477Z,102554.81
2023-01-23T07:55:19.848Z,102558.09
2023-01-23T07:56:35.198Z,102558.06
2023-01-23T07:58:04.540Z,102562.38
2023-01-23T07:59:19.468Z,102561.91
2023-01-23T08:00:38.637Z,102561.34
2023-01-23T08:02:04.529Z,102566.03
2023-01-23T08:03:30.232Z,102561.91
2023-01-23T08:04:48.624Z,102556.47
2023-01-23T08:06:08.084Z,102560.38
2023-01-23T08:07:15.802Z,102566.72
2023-01-23T08:08:33.889Z,102565.44
2023-01-23T08:09:46.681Z,102571.56
2023-01-23T08:11:22.513Z,102568.03
2023-01-23T08:12:46.610Z,102574.97
2023-01-23T08:13:57.154Z,102573.75
2023-01-23T08:15:48.760Z,102569.63
2023-01-23T08:17:03.353Z,102576.81
2023-01-23T08:18:09.171Z,102577.06
2023-01-23T08:20:57.571Z,102568.06
2023-01-23T08:22:12.372Z,102568.66
2023-01-23T08:23:22.771Z,102568.47
2023-01-23T08:24:34.455Z,102571.09
2023-01-23T08:26:16.839Z,102574.88
2023-01-23T08:27:22.547Z,102579.34
2023-01-23T08:28:31.004Z,102575.34
2023-01-23T08:31:22.703Z,102575.59
2023-01-23T08:32:38.199Z,102564.22
2023-01-23T08:33:48.055Z,102570.22
2023-01-23T08:35:13.618Z,102574.09
2023-01-23T08:37:32.170Z,102575.34
2023-01-23T08:38:54.843Z,102574.72
2023-01-23T08:40:59.162Z,102580.66
2023-01-23T08:42:11.003Z,102572.75
2023-01-23T08:44:13.463Z,102565.56
2023-01-23T08:45:24.453Z,102576.31
2023-01-23T08:48:19.708Z,102559.19
2023-01-23T08:49:52.676Z,102580.41
2023-01-23T08:51:18.074Z,102566.06
2023-01-23T08:52:37.777Z,102573.78
2023-01-23T08:54:36.946Z,102566.44
2023-01-23T08:55:56.238Z,102563.94
2023-01-23T08:57:14.124Z,102571.41
2023-01-23T08:58:18.567Z,102571.78
2023-01-23T08:59:28.005Z,102570.56
2023-01-23T09:00:32.431Z,102576.16
2023-01-23T09:01:35.584Z,102583.22
2023-01-23T09:02:40.694Z,102573.72
2023-01-23T09:03:49.629Z,102577.50
2023-01-23T09:04:55.999Z,102571.06
2023-01-23T09:06:08.696Z,102567.31
2023-01-23T09:07:23.438Z,102578.94
2023-01-23T09:08:30.037Z,102577.16
2023-01-23T09:09:38.343Z,102577.28
2023-01-23T09:10:46.384Z,102574.78
2023-01-23T09:11:54.232Z,102573.84
2023-01-23T09:13:00.148Z,102576.66
2023-01-23T09:14:09.767Z,102580.59
2023-01-23T09:15:19.285Z,102571.41
2023-01-23T09:16:23.766Z,102569.75
2023-01-23T09:17:36.864Z,102576.44
2023-01-23T09:18:43.894Z,102581.66
2023-01-23T09:19:48.192Z,102574.25
2023-01-23T09:20:55.243Z,102581.75
2023-01-23T09:22:13.255Z,102576.09
2023-01-23T09:24:04.010Z,102580.91
2023-01-23T09:25:09.949Z,102567.69
2023-01-23T09:26:20.039Z,102575.41
2023-01-23T09:29:03.632Z,102573.13
2023-01-23T09:30:46.473Z,102572.66
2023-01-23T09:32:27.733Z,102576.69
2023-01-23T09:33:58.357Z,102569.78
2023-01-23T09:35:43.831Z,102562.16
2023-01-23T09:36:55.795Z,102566.53
2023-01-23T09:38:15.922Z,102562.28
2023-01-23T09:39:39.075Z,102561.13
2023-01-23T09:41:03.281Z,102572.25
2023-01-23T09:42:29.821Z,102559.84
2023-01-23T09:43:33.505Z,102548.69
2023-01-23T09:44:54.357Z,102566.38
2023-01-23T09:46:33.620Z,102557.69
2023-01-23T09:49:58.393Z,102555.00
2023-01-23T09:51:46.574Z,102550.09
2023-01-23T09:52:58.101Z,102550.09
2023-01-23T09:54:32.871Z,102553.44
2023-01-23T09:56:00.869Z,102550.81
2023-01-23T09:57:34.357Z,102552.00
2023-01-23T09:58:59.202Z,102554.88
2023-01-23T10:00:42.258Z,102545.28
2023-01-23T10:02:26.468Z,102552.00
2023-01-23T10:04:09.106Z,102548.06
2023-01-23T10:05:52.479Z,102536.63
2023-01-23T10:07:50.172Z,102544.59
2023-01-23T10:09:07.511Z,102537.84
2023-01-23T10:10:32.659Z,102542.78
2023-01-23T10:12:09.090Z,102538.69
2023-01-23T10:13:32.716Z,102540.16
2023-01-23T10:15:20.985Z,102540.81
2023-01-23T10:16:54.745Z,102536.44
2023-01-23T10:18:27.261Z,102539.34
2023-01-23T10:19:37.077Z,102539.97
2023-01-23T10:21:40.809Z,102535.03
2023-01-23T10:23:48.418Z,102536.22
2023-01-23T10:24:59.348Z,102548.81
2023-01-23T10:26:20.140Z,102531.78
2023-01-23T10:31:36.016Z,102530.59
2023-01-23T10:33:26.701Z,102538.28
2023-01-23T10:37:59.584Z,102545.25
2023-01-23T10:39:47.605Z,102544.28
2023-01-23T10:43:17.584Z,102539.34
2023-01-23T10:44:36.797Z,102542.38
2023-01-23T10:46:36.311Z,102537.84
2023-01-23T10:47:55.203Z,102539.34
2023-01-23T10:49:27.659Z,102536.28
2023-01-23T10:50:50.086Z,102542.47
2023-01-23T10:53:11.415Z,102533.91
2023-01-23T10:56:00.207Z,102535.88
2023-01-23T10:58:00.722Z,102529.94
2023-01-23T10:59:49.929Z,102534.91
2023-01-23T11:02:55.535Z,102534.91
2023-01-23T11:06:21.170Z,102528.63
2023-01-23T11:10:22.738Z,102520.47
2023-01-23T11:11:35.148Z,102525.81
2023-01-23T11:13:02.071Z,102528.94
2023-01-23T11:14:23.306Z,102522.44
2023-01-23T11:19:40.954Z,102523.91
2023-01-23T11:27:07.380Z,102526.00
2023-01-23T11:36:48.919Z,102530.59
2023-01-23T11:38:31.858Z,102533.97
2023-01-23T11:42:05.341Z,102529.88
2023-01-23T11:45:50.938Z,102527.22
2023-01-23T11:47:54.997Z,102532.72
2023-01-23T11:49:25.466Z,102533.56
2023-01-23T11:55:12.606Z,102539.34
2023-01-23T12:00:17.322Z,102534.56
2023-01-23T12:03:31.976Z,102533.16
2023-01-23T12:05:39.813Z,102537.69
2023-01-23T12:07:25.987Z,102530.78
2023-01-23T12:09:11.968Z,102532.91
2023-01-23T12:10:50.548Z,102538.50
2023-01-23T12:12:45.665Z,102527.28
2023-01-23T12:14:20.375Z,102533.16
2023-01-23T12:16:04.519Z,102538.16
2023-01-23T12:20:45.648Z,102534.81
2023-01-23T12:22:22.175Z,102533.72
2023-01-23T12:24:19.105Z,102524.50
2023-01-23T12:26:17.453Z,102526.66
2023-01-23T12:32:35.672Z,102527.06
2023-01-23T12:37:08.094Z,102533.91
2023-01-23T12:41:35.671Z,102528.97
2023-01-23T12:43:10.053Z,102532.91
2023-01-23T12:44:18.906Z,102517.94
2023-01-23T12:45:28.432Z,102525.81
2023-01-23T12:46:41.480Z,102515.47
2023-01-23T12:47:49.565Z,102523.94
2023-01-23T12:48:59.045Z,102516.09
2023-01-23T12:50:34.792Z,102519.72
2023-01-23T12:51:45.366Z,102508.94
2023-01-23T12:52:56.113Z,102510.03
2023-01-23T12:54:13.774Z,102503.63
2023-01-23T12:55:33.079Z,102508.59
2023-01-23T12:57:06.742Z,102506.47
2023-01-23T12:58:17.778Z,102509.78
2023-01-23T13:00:03.148Z,102507.97
2023-01-23T13:01:25.828Z,102505.25
2023-01-23T13:02:45.706Z,102495.34
2023-01-23T13:04:36.487Z,102503.59
2023-01-23T13:06:02.299Z,102504.47
2023-01-23T13:07:30.396Z,102505.13
2023-01-23T13:09:12.432Z,102506.53
2023-01-23T13:10:51.996Z,102508.03
2023-01-23T13:12:22.839Z,102508.78
2023-01-23T13:13:32.245Z,102506.72
2023-01-23T13:14:47.727Z,102512.91
2023-01-23T13:16:14.885Z,102505.00
2023-01-23T13:17:37.475Z,102501.38
2023-01-23T13:18:59.068Z,102505.56
2023-01-23T13:20:43.058Z,102502.59
2023-01-23T13:22:32.294Z,102510.19
2023-01-23T13:23:39.838Z,102506.41
2023-01-23T13:25:12.139Z,102506.72
2023-01-23T13:26:23.239Z,102505.88
2023-01-23T13:27:41.756Z,102510.84
2023-01-23T13:28:57.069Z,102512.16
2023-01-23T13:30:38.685Z,102507.72
2023-01-23T13:31:47.620Z,102507.66
2023-01-23T13:32:52.935Z,102507.06
2023-01-23T13:34:06.531Z,102507.38
2023-01-23T13:35:47.901Z,102513.97
2023-01-23T13:37:34.435Z,102509.84
2023-01-23T13:38:40.712Z,102504.75
2023-01-23T13:40:21.948Z,102511.31
2023-01-23T13:41:29.731Z,102511.91
2023-01-23T13:42:35.995Z,102512.97
2023-01-23T13:43:55.758Z,102520.88
2023-01-23T13:45:31.039Z,102504.34
2023-01-23T14:28:19.008Z,102494.53
2023-01-23T14:30:43.579Z,102498.06
2023-01-23T14:33:11.765Z,102483.09
2023-01-23T14:34:19.182Z,102483.59
2023-01-23T14:35:25.595Z,102483.25
2023-01-23T14:36:32.702Z,102486.63
2023-01-23T14:37:39.381Z,102484.31
2023-01-23T14:38:48.747Z,102484.06
2023-01-23T14:40:11.933Z,102482.88
2023-01-23T14:41:35.036Z,102479.91
2023-01-23T14:42:41.933Z,102482.75
2023-01-23T14:43:47.433Z,102481.28
2023-01-23T14:44:52.026Z,102485.06
2023-01-23T14:46:19.905Z,102475.78
2023-01-23T14:47:34.637Z,102486.97
2023-01-23T14:48:45.695Z,102483.84
2023-01-23T14:49:52.854Z,102486.47
2023-01-23T14:51:07.691Z,102491.25
2023-01-23T14:52:23.750Z,102483.59
2023-01-23T14:53:26.321Z,102480.69
2023-01-23T14:54:32.888Z,102476.19
2023-01-23T14:55:40.014Z,102482.41
2023-01-23T14:56:42.732Z,102481.69
2023-01-23T14:57:45.175Z,102483.34
2023-01-23T14:58:47.884Z,102476.59
2023-01-23T14:59:53.243Z,102477.59
2023-01-23T15:00:56.226Z,102477.09
2023-01-23T15:02:10.291Z,102478.81
2023-01-23T15:03:56.040Z,102486.81
2023-01-23T15:05:22.650Z,102480.91
2023-01-23T15:06:30.226Z,102480.63
2023-01-23T15:07:32.747Z,102485.59
2023-01-23T15:08:38.266Z,102483.09
2023-01-23T15:09:45.942Z,102491.44
2023-01-23T15:10:50.736Z,102481.94
2023-01-23T15:11:53.149Z,102485.00
2023-01-23T15:13:06.677Z,102483.19
2023-01-23T15:14:23.337Z,102471.16
2023-01-23T15:15:28.507Z,102469.03
2023-01-23T15:16:35.205Z,102479.91
2023-01-23T15:17:37.325Z,102477.09
2023-01-23T15:18:40.222Z,102483.34
2023-01-23T15:19:46.433Z,102474.38
2023-01-23T15:21:05.433Z,102475.19
2023-01-23T15:22:25.585Z,102479.03
2023-01-23T15:23:34.079Z,102475.34
2023-01-23T15:24:36.560Z,102473.81
2023-01-23T15:25:40.905Z,102469.81
2023-01-23T15:26:55.868Z,102473.94
2023-01-23T15:27:58.400Z,102468.59
2023-01-23T15:29:09.141Z,102472.88
2023-01-23T15:30:35.893Z,102469.59
2023-01-23T15:31:40.946Z,102474.13
2023-01-23T15:32:48.164Z,102471.00
2023-01-23T15:33:53.591Z,102471.47
2023-01-23T15:34:57.908Z,102473.88
2023-01-23T15:36:08.982Z,102466.94
2023-01-23T15:37:13.801Z,102475.13
2023-01-23T15:38:17.589Z,102470.00
2023-01-23T15:39:28.720Z,102471.66
2023-01-23T15:40:33.405Z,102474.22
2023-01-23T15:41:39.712Z,102473.47
2023-01-23T15:42:41.953Z,102468.78
2023-01-23T15:43:47.112Z,102469.38
2023-01-23T15:44:49.403Z,102472.06
2023-01-23T15:45:51.643Z,102463.28
2023-01-23T15:46:54.063Z,102461.94
2023-01-23T15:47:58.377Z,102471.34
2023-01-23T15:49:00.468Z,102467.31
2023-01-23T15:50:03.336Z,102464.09
2023-01-23T15:51:06.065Z,102463.41
2023-01-23T15:52:31.488Z,102464.50
2023-01-23T15:53:36.846Z,102468.63
2023-01-23T15:54:39.257Z,102459.69
2023-01-23T15:55:41.843Z,102461.59
2023-01-23T15:56:50.828Z,102457.41
2023-01-23T15:57:56.569Z,102460.28
2023-01-23T15:59:08.102Z,102458.47
2023-01-23T16:00:26.453Z,102460.59
2023-01-23T16:01:29.669Z,102456.50
2023-01-23T16:02:35.752Z,102451.13
2023-01-23T16:03:39.669Z,102461.94
2023-01-23T16:04:47.514Z,102453.03
2023-01-23T16:05:50.492Z,102451.72
2023-01-23T16:06:54.217Z,102455.00
2023-01-23T16:08:04.434Z,102457.16
2023-01-23T16:09:07.287Z,102457.56
2023-01-23T16:10:20.133Z,102460.81
2023-01-23T16:11:25.635Z,102465.56
2023-01-23T16:12:29.935Z,102462.69
2023-01-23T16:13:37.073Z,102464.06
2023-01-23T16:14:40.884Z,102458.16
2023-01-23T16:15:44.493Z,102462.41
2023-01-23T16:17:11.482Z,102454.06
2023-01-23T16:19:56.849Z,102456.69
2023-01-23T16:21:08.260Z,102447.53
2023-01-23T16:22:22.829Z,102452.06
2023-01-23T16:23:46.675Z,102448.69
2023-01-23T16:24:50.060Z,102451.09
2023-01-23T16:25:54.649Z,102457.34
2023-01-23T16:27:05.114Z,102443.31
2023-01-23T16:28:11.920Z,102445.69
2023-01-23T16:29:32.663Z,102438.72
2023-01-23T16:30:35.305Z,102444.16
2023-01-23T16:31:38.332Z,102442.88
2023-01-23T16:32:41.376Z,102444.22
2023-01-23T16:33:43.961Z,102443.94
2023-01-23T16:34:56.153Z,102444.47
2023-01-23T16:36:13.343Z,102437.38
2023-01-23T16:37:20.261Z,102444.28
2023-01-23T16:38:38.985Z,102437.13
2023-01-23T16:39:53.696Z,102448.56
2023-01-23T16:41:05.531Z,102448.22
2023-01-23T16:42:25.622Z,102444.84
2023-01-23T16:43:32.518Z,102443.84
2023-01-23T16:44:36.368Z,102445.91
2023-01-23T16:45:39.570Z,102442.31
2023-01-23T16:46:45.923Z,102448.06
2023-01-23T16:47:59.797Z,102453.38
2023-01-23T16:49:03.823Z,102442.63
2023-01-23T16:50:06.652Z,102447.41
2023-01-23T16:51:24.535Z,102437.53
2023-01-23T16:52:28.578Z,102450.72
2023-01-23T16:53:34.691Z,102447.38
2023-01-23T16:54:39.385Z,102440.28
2023-01-23T16:55:52.702Z,102443.31
2023-01-23T16:56:58.453Z,102440.50
2023-01-23T16:58:02.031Z,102445.22
2023-01-23T16:59:21.636Z,102443.50
2023-01-23T17:00:34.059Z,102439.63
2023-01-23T17:01:51.868Z,102445.94
2023-01-23T17:03:00.443Z,102438.47
2023-01-23T17:04:06.633Z,102435.75
2023-01-23T17:05:15.780Z,102449.41
2023-01-23T17:06:24.386Z,102437.69
2023-01-23T17:07:31.131Z,102449.19
2023-01-23T17:08:38.687Z,102443.13
2023-01-23T17:09:50.485Z,102446.19
2023-01-23T17:11:07.624Z,102441.00
2023-01-23T17:12:28.630Z,102444.31
2023-01-23T17:13:41.207Z,102444.75
2023-01-23T17:14:47.970Z,102444.34
2023-01-23T17:15:55.660Z,102441.44
2023-01-23T17:17:08.325Z,102441.94
2023-01-23T17:19:52.543Z,102436.81
2023-01-23T17:20:56.422Z,102440.50
2023-01-23T17:22:08.796Z,102437.34
2023-01-23T17:23:25.447Z,102440.50
2023-01-23T17:24:30.547Z,102437.34
2023-01-23T17:25:47.868Z,102439.22
2023-01-23T17:26:57.184Z,102436.44
2023-01-23T17:28:12.868Z,102433.94
2023-01-23T17:29:16.740Z,102432.72
2023-01-23T17:30:31.421Z,102444.03
2023-01-23T17:31:35.124Z,102434.78
2023-01-23T17:32:49.327Z,102434.41
2023-01-23T17:36:21.331Z,102440.81
2023-01-23T17:38:10.317Z,102440.28
2023-01-23T17:39:59.609Z,102441.56
2023-01-23T17:41:11.465Z,102438.16
2023-01-23T17:42:28.940Z,102434.78
2023-01-23T17:43:35.104Z,102445.72
2023-01-23T17:44:44.146Z,102451.13
2023-01-23T17:45:51.004Z,102443.84
2023-01-23T17:46:55.099Z,102445.03
2023-01-23T17:47:57.873Z,102442.56
2023-01-23T17:49:03.783Z,102438.28
2023-01-23T17:50:37.451Z,102443.53
2023-01-23T17:51:41.307Z,102433.41
2023-01-23T17:52:46.606Z,102433.28
2023-01-23T17:53:54.394Z,102442.56
2023-01-23T17:55:02.723Z,102439.75
2023-01-23T17:56:09.205Z,102439.91
2023-01-23T17:57:15.778Z,102440.66
2023-01-23T17:58:22.454Z,102439.53
2023-01-23T17:59:36.719Z,102440.75
2023-01-23T18:00:48.673Z,102440.19
2023-01-23T18:01:53.709Z,102441.88
2023-01-23T18:03:02.814Z,102453.25
2023-01-23T18:04:19.228Z,102444.53
2023-01-23T18:05:27.186Z,102445.03
2023-01-23T18:06:40.602Z,102447.22
2023-01-23T18:08:19.817Z,102439.66
2023-01-23T18:09:24.778Z,102433.94
2023-01-23T18:10:30.171Z,102449.22
2023-01-23T18:11:40.974Z,102439.13
2023-01-23T18:13:23.896Z,102437.84
2023-01-23T18:14:39.583Z,102435.75
2023-01-23T18:16:22.819Z,102437.75
2023-01-23T18:17:45.636Z,102429.31
2023-01-23T18:18:59.252Z,102431.06
2023-01-23T18:20:23.702Z,102431.59
2023-01-23T18:21:33.102Z,102426.59
2023-01-23T18:22:41.299Z,102429.03
2023-01-23T18:23:47.769Z,102423.44
2023-01-23T18:25:07.248Z,102430.00
2023-01-23T18:26:42.888Z,102421.78
2023-01-23T18:27:57.321Z,102428.22
2023-01-23T18:29:23.737Z,102417.41
2023-01-23T18:31:18.465Z,102424.44
2023-01-23T18:32:35.685Z,102424.44
2023-01-23T18:33:52.483Z,102417.16
2023-01-23T18:35:24.069Z,102421.78
2023-01-23T18:36:54.132Z,102418.41
2023-01-23T18:38:02.550Z,102417.78
2023-01-23T18:39:33.195Z,102411.31